createdAt,value
2019-06-26T00:01:12.963Z,76.00
2019-06-26T00:03:42.038Z,75.80
2019-06-26T00:06:11.071Z,70.90
2019-06-26T00:08:40.535Z,79.37
2019-06-26T00:11:12.016Z,83.67
2019-06-26T00:13:41.000Z,84.77
2019-06-26T00:16:10.341Z,85.90
2019-06-26T00:18:39.724Z,85.87
2019-06-26T00:21:08.782Z,83.72
2019-06-26T00:23:37.741Z,82.33
2019-06-26T00:26:06.697Z,84.50
2019-06-26T00:28:35.676Z,87.35
2019-06-26T00:31:04.653Z,88.87
2019-06-26T00:33:33.686Z,85.15
2019-06-26T00:36:02.768Z,85.62
2019-06-26T00:38:31.790Z,87.82
2019-06-26T00:41:00.983Z,87.82
2019-06-26T00:43:41.938Z,96.32
2019-06-26T00:46:00.624Z,85.95
2019-06-26T00:48:29.911Z,89.58
2019-06-26T00:50:59.219Z,89.60
2019-06-26T00:53:30.377Z,89.47
2019-06-26T00:55:59.496Z,81.57
2019-06-26T00:58:28.478Z,87.33
2019-06-26T01:00:59.681Z,85.55
2019-06-26T01:03:28.821Z,85.62
2019-06-26T01:05:57.894Z,90.75
2019-06-26T01:08:27.128Z,91.85
2019-06-26T01:10:56.366Z,88.50
2019-06-26T01:13:25.496Z,92.57
2019-06-26T01:15:54.549Z,88.37
2019-06-26T01:18:24.099Z,91.32
2019-06-26T01:20:53.768Z,90.38
2019-06-26T01:23:22.740Z,91.25
2019-06-26T01:25:51.733Z,88.58
2019-06-26T01:28:20.701Z,92.00
2019-06-26T01:30:49.715Z,88.85
2019-06-26T01:33:19.198Z,94.70
2019-06-26T01:35:48.220Z,93.72
2019-06-26T01:38:17.225Z,89.95
2019-06-26T01:40:46.484Z,91.28
2019-06-26T01:43:15.566Z,91.60
2019-06-26T01:45:44.521Z,92.27
2019-06-26T01:48:13.495Z,98.42
2019-06-26T01:50:42.875Z,96.28
2019-06-26T01:53:11.902Z,94.13
2019-06-26T01:55:40.919Z,92.92
2019-06-26T01:58:09.980Z,94.87
2019-06-26T02:00:39.359Z,92.05
2019-06-26T02:03:08.778Z,91.00
2019-06-26T02:05:37.810Z,91.63
2019-06-26T02:08:06.814Z,99.20
2019-06-26T02:10:35.785Z,97.70
2019-06-26T02:13:04.766Z,91.12
2019-06-26T02:15:33.752Z,92.30
2019-06-26T02:18:02.874Z,95.28
2019-06-26T02:20:31.938Z,94.95
2019-06-26T02:23:00.919Z,92.75
2019-06-26T02:25:29.903Z,93.67
2019-06-26T02:27:58.894Z,100.33
2019-06-26T02:30:27.853Z,95.10
2019-06-26T02:32:56.858Z,97.42
2019-06-26T02:35:25.819Z,96.65
2019-06-26T02:37:54.799Z,99.35
2019-06-26T02:40:24.001Z,104.10
2019-06-26T02:42:53.056Z,101.97
2019-06-26T02:45:22.147Z,104.55
2019-06-26T02:47:51.494Z,104.45
2019-06-26T02:50:20.459Z,113.52
2019-06-26T02:52:49.436Z,108.42
2019-06-26T02:55:18.489Z,115.37
2019-06-26T02:57:47.543Z,117.37
2019-06-26T03:00:16.830Z,110.10
2019-06-26T03:02:46.177Z,110.83
2019-06-26T03:05:17.414Z,109.40
2019-06-26T03:07:46.520Z,112.68
2019-06-26T03:10:16.110Z,111.90
2019-06-26T03:12:45.157Z,114.72
2019-06-26T03:15:14.576Z,121.35
2019-06-26T03:17:54.837Z,117.90
2019-06-26T03:20:14.681Z,114.85
2019-06-26T03:22:43.771Z,118.85
2019-06-26T03:25:12.944Z,116.50
2019-06-26T03:27:41.938Z,118.77
2019-06-26T03:30:11.230Z,118.97
2019-06-26T03:32:40.198Z,112.68
2019-06-26T03:35:09.556Z,122.10
2019-06-26T03:37:38.695Z,121.22
2019-06-26T03:40:08.877Z,118.40
2019-06-26T03:42:37.864Z,113.50
2019-06-26T03:45:15.645Z,111.52
2019-06-26T03:47:38.352Z,111.68
2019-06-26T03:50:08.763Z,117.47
2019-06-26T03:52:37.799Z,112.20
2019-06-26T03:55:07.266Z,110.08
2019-06-26T03:57:36.311Z,109.80
2019-06-26T04:00:07.396Z,106.32
2019-06-26T04:02:36.409Z,104.12
2019-06-26T04:05:07.207Z,107.03
2019-06-26T04:07:36.321Z,102.07
2019-06-26T04:10:08.555Z,106.50
2019-06-26T04:12:37.635Z,108.00
2019-06-26T04:15:09.915Z,106.20
2019-06-26T04:17:38.973Z,106.32
2019-06-26T04:20:08.202Z,113.90
2019-06-26T04:22:37.235Z,115.40
2019-06-26T04:25:07.751Z,114.45
2019-06-26T04:27:36.781Z,110.92
2019-06-26T04:30:07.377Z,110.12
2019-06-26T04:32:36.467Z,108.32
2019-06-26T04:35:07.366Z,114.95
2019-06-26T04:37:36.443Z,117.10
2019-06-26T04:40:07.267Z,123.47
2019-06-26T04:42:36.299Z,125.92
2019-06-26T04:45:07.997Z,131.93
2019-06-26T04:47:37.338Z,126.27
2019-06-26T04:50:07.704Z,124.85
2019-06-26T04:52:36.966Z,124.42
2019-06-26T04:55:07.206Z,121.00
2019-06-26T04:57:36.390Z,129.87
2019-06-26T05:00:08.082Z,144.10
2019-06-26T05:02:37.155Z,125.05
2019-06-26T05:05:07.119Z,129.10
2019-06-26T05:07:36.082Z,132.90
2019-06-26T05:10:09.519Z,129.82
2019-06-26T05:12:38.497Z,131.05
2019-06-26T05:15:08.842Z,132.12
2019-06-26T05:17:37.964Z,130.90
2019-06-26T05:20:08.044Z,131.72
2019-06-26T05:22:37.233Z,136.15
2019-06-26T05:25:08.042Z,136.37
2019-06-26T05:27:37.207Z,136.22
2019-06-26T05:30:07.748Z,130.63
2019-06-26T05:32:36.873Z,136.00
2019-06-26T05:35:09.911Z,129.50
2019-06-26T05:37:38.954Z,124.25
2019-06-26T05:40:10.189Z,136.00
2019-06-26T05:42:39.495Z,129.23
2019-06-26T05:45:10.233Z,113.80
2019-06-26T05:47:39.738Z,116.82
2019-06-26T05:50:10.982Z,116.45
2019-06-26T05:52:42.813Z,118.45
2019-06-26T05:55:12.118Z,116.03
2019-06-26T05:57:42.135Z,101.72
2019-06-26T06:00:12.509Z,107.12
2019-06-26T06:02:41.612Z,106.97
2019-06-26T06:05:12.122Z,99.67
2019-06-26T06:07:41.425Z,96.15
2019-06-26T06:10:12.221Z,102.27
2019-06-26T06:12:41.326Z,93.80
2019-06-26T06:15:13.531Z,93.37
2019-06-26T06:17:42.933Z,101.60
2019-06-26T06:20:12.520Z,89.92
2019-06-26T06:22:41.550Z,98.58
2019-06-26T06:25:10.935Z,97.53
2019-06-26T06:27:39.982Z,101.22
2019-06-26T06:30:09.943Z,98.87
2019-06-26T06:32:38.913Z,101.95
2019-06-26T06:35:08.088Z,104.47
2019-06-26T06:37:38.690Z,102.00
2019-06-26T06:40:08.775Z,106.92
2019-06-26T06:42:37.767Z,95.17
2019-06-26T06:45:07.373Z,102.80
2019-06-26T06:47:36.473Z,96.92
2019-06-26T06:50:09.295Z,101.50
2019-06-26T06:52:38.265Z,93.77
2019-06-26T06:55:07.326Z,94.40
2019-06-26T06:57:36.374Z,100.25
2019-06-26T07:00:07.830Z,97.88
2019-06-26T07:02:36.774Z,91.82
2019-06-26T07:05:06.811Z,102.50
2019-06-26T07:07:35.861Z,94.70
2019-06-26T07:10:06.339Z,95.87
2019-06-26T07:12:35.819Z,95.20
2019-06-26T07:15:07.325Z,102.82
2019-06-26T07:17:36.357Z,106.25
2019-06-26T07:20:06.372Z,97.22
2019-06-26T07:22:35.474Z,94.28
2019-06-26T07:25:06.019Z,91.42
2019-06-26T07:27:35.117Z,114.52
2019-06-26T07:30:05.844Z,104.55
2019-06-26T07:32:34.907Z,102.10
2019-06-26T07:35:05.717Z,105.05
2019-06-26T07:37:34.722Z,99.30
2019-06-26T07:40:05.241Z,101.97
2019-06-26T07:42:34.232Z,96.82
2019-06-26T07:45:03.478Z,110.90
2019-06-26T07:47:42.409Z,101.20
2019-06-26T07:50:04.304Z,94.77
2019-06-26T07:52:33.264Z,97.82
2019-06-26T07:55:02.505Z,98.45
2019-06-26T07:57:31.845Z,100.55
2019-06-26T08:00:00.918Z,97.85
2019-06-26T08:02:30.154Z,102.70
2019-06-26T08:04:59.191Z,96.30
2019-06-26T08:07:28.185Z,93.25
2019-06-26T08:09:57.226Z,83.00
2019-06-26T08:12:26.280Z,91.25
2019-06-26T08:14:55.358Z,87.22
2019-06-26T08:17:24.397Z,92.88
2019-06-26T08:19:53.394Z,97.22
2019-06-26T08:22:22.390Z,86.50
2019-06-26T08:24:51.352Z,89.95
2019-06-26T08:27:23.308Z,87.75
2019-06-26T08:29:52.348Z,87.15
2019-06-26T08:32:21.334Z,85.15
2019-06-26T08:34:50.461Z,88.95
2019-06-26T08:37:19.493Z,80.95
2019-06-26T08:39:48.575Z,84.72
2019-06-26T08:42:17.599Z,90.75
2019-06-26T08:44:46.817Z,83.55
2019-06-26T08:47:15.854Z,88.05
2019-06-26T08:49:44.808Z,85.65
2019-06-26T08:52:13.975Z,83.33
2019-06-26T08:54:43.009Z,91.42
2019-06-26T08:57:12.039Z,89.25
2019-06-26T08:59:41.084Z,90.05
2019-06-26T09:02:10.214Z,90.80
2019-06-26T09:04:39.687Z,84.05
2019-06-26T09:07:09.079Z,86.40
2019-06-26T09:09:38.109Z,89.13
2019-06-26T09:12:07.101Z,83.80
2019-06-26T09:14:36.374Z,81.30
2019-06-26T09:17:05.397Z,79.90
2019-06-26T09:19:34.434Z,83.33
2019-06-26T09:22:03.493Z,82.90
2019-06-26T09:24:32.558Z,81.12
2019-06-26T09:27:01.590Z,89.20
2019-06-26T09:29:30.564Z,82.95
2019-06-26T09:31:59.554Z,74.77
2019-06-26T09:34:28.535Z,73.52
2019-06-26T09:36:57.605Z,90.73
2019-06-26T09:39:26.644Z,81.82
2019-06-26T09:41:55.658Z,81.63
2019-06-26T09:44:24.706Z,79.62
2019-06-26T09:46:53.686Z,79.60
2019-06-26T09:49:22.761Z,74.85
2019-06-26T09:51:52.011Z,83.58
2019-06-26T09:54:20.979Z,81.35
2019-06-26T09:56:50.119Z,79.80
2019-06-26T09:59:19.168Z,77.92
2019-06-26T10:01:48.239Z,77.42
2019-06-26T10:04:17.202Z,73.25
2019-06-26T10:06:46.180Z,74.50
2019-06-26T10:09:15.221Z,76.65
2019-06-26T10:11:44.179Z,72.03
2019-06-26T10:14:13.494Z,70.30
2019-06-26T10:16:42.531Z,72.62
2019-06-26T10:19:11.625Z,78.07
2019-06-26T10:21:40.615Z,77.82
2019-06-26T10:24:09.575Z,70.25
2019-06-26T10:26:38.592Z,70.50
2019-06-26T10:29:07.655Z,70.45
2019-06-26T10:31:36.685Z,68.50
2019-06-26T10:34:09.726Z,67.78
2019-06-26T10:36:36.327Z,62.83
2019-06-26T10:39:07.920Z,62.53
2019-06-26T10:41:36.949Z,61.10
2019-06-26T10:44:06.051Z,59.48
2019-06-26T10:46:35.107Z,58.80
2019-06-26T10:49:04.202Z,60.95
2019-06-26T10:51:33.276Z,59.53
2019-06-26T10:54:02.239Z,51.15
2019-06-26T10:56:31.285Z,55.43
2019-06-26T10:59:00.348Z,55.67
2019-06-26T11:01:29.699Z,56.08
2019-06-26T11:03:58.698Z,50.67
2019-06-26T11:06:27.734Z,48.83
2019-06-26T11:08:56.691Z,49.27
2019-06-26T11:11:25.686Z,47.62
2019-06-26T11:13:54.726Z,46.28
2019-06-26T11:16:23.717Z,44.43
2019-06-26T11:18:52.680Z,44.40
2019-06-26T11:21:21.649Z,44.03
2019-06-26T11:23:50.658Z,44.05
2019-06-26T11:26:19.684Z,39.43
2019-06-26T11:28:48.760Z,40.15
2019-06-26T11:31:17.725Z,43.20
2019-06-26T11:33:46.679Z,33.02
2019-06-26T11:36:15.743Z,37.43
2019-06-26T11:38:44.748Z,37.60
2019-06-26T11:41:13.753Z,39.77
2019-06-26T11:43:42.724Z,35.80
2019-06-26T11:46:12.081Z,36.48
2019-06-26T11:48:41.208Z,39.90
2019-06-26T11:51:10.246Z,33.13
2019-06-26T11:53:39.469Z,35.33
2019-06-26T11:56:09.491Z,29.67
2019-06-26T11:58:38.854Z,40.12
2019-06-26T12:01:07.948Z,37.25
2019-06-26T12:03:37.021Z,37.17
2019-06-26T12:06:17.963Z,32.33
2019-06-26T12:08:36.744Z,39.92
2019-06-26T12:11:05.805Z,42.73
2019-06-26T12:13:34.846Z,36.90
2019-06-26T12:16:03.804Z,38.35
2019-06-26T12:18:33.239Z,41.02
2019-06-26T12:21:02.200Z,42.45
2019-06-26T12:23:31.233Z,46.92
2019-06-26T12:26:00.303Z,44.00
2019-06-26T12:28:29.343Z,50.08
2019-06-26T12:30:58.306Z,44.27
2019-06-26T12:33:27.306Z,45.33
2019-06-26T12:35:56.264Z,45.52
2019-06-26T12:38:25.371Z,48.38
2019-06-26T12:40:54.881Z,50.33
2019-06-26T12:43:24.004Z,47.70
2019-06-26T12:45:53.034Z,49.53
2019-06-26T12:48:22.010Z,48.83
2019-06-26T12:50:51.165Z,54.15
2019-06-26T12:53:20.125Z,53.90
2019-06-26T12:55:49.103Z,49.60
2019-06-26T12:58:20.002Z,49.58
2019-06-26T13:00:48.759Z,51.33
2019-06-26T13:03:17.754Z,41.75
2019-06-26T13:05:46.770Z,44.75
2019-06-26T13:08:15.759Z,49.33
2019-06-26T13:10:49.762Z,44.13
2019-06-26T13:13:15.470Z,46.58
2019-06-26T13:15:44.490Z,46.35
2019-06-26T13:18:13.524Z,53.48
2019-06-26T13:20:52.702Z,55.65
2019-06-26T13:23:14.917Z,52.65
2019-06-26T13:25:44.125Z,48.58
2019-06-26T13:28:13.123Z,52.08
2019-06-26T13:30:42.165Z,54.30
2019-06-26T13:33:11.202Z,53.00
2019-06-26T13:35:40.278Z,59.58
2019-06-26T13:38:09.685Z,58.23
2019-06-26T13:40:41.048Z,60.95
2019-06-26T13:43:10.055Z,66.42
2019-06-26T13:45:39.305Z,58.00
2019-06-26T13:48:08.485Z,55.45
2019-06-26T13:50:37.510Z,60.92
2019-06-26T13:53:06.743Z,53.63
2019-06-26T13:55:35.837Z,54.77
2019-06-26T13:58:04.872Z,58.23
2019-06-26T14:00:33.843Z,67.62
2019-06-26T14:03:02.820Z,54.73
2019-06-26T14:05:31.805Z,54.73
2019-06-26T14:08:00.767Z,57.35
2019-06-26T14:10:30.126Z,53.48
2019-06-26T14:12:59.195Z,50.98
2019-06-26T14:15:28.226Z,47.30
2019-06-26T14:17:57.257Z,49.42
2019-06-26T14:20:26.565Z,47.03
2019-06-26T14:22:55.527Z,46.28
2019-06-26T14:25:24.873Z,45.70
2019-06-26T14:27:53.834Z,41.63
2019-06-26T14:30:23.490Z,45.98
2019-06-26T14:32:52.453Z,44.20
2019-06-26T14:35:21.425Z,39.60
2019-06-26T14:37:50.409Z,40.17
2019-06-26T14:40:19.735Z,41.37
2019-06-26T14:42:48.754Z,39.92
2019-06-26T14:45:17.914Z,42.83
2019-06-26T14:47:46.922Z,37.50
2019-06-26T14:50:16.294Z,35.43
2019-06-26T14:52:46.095Z,39.35
2019-06-26T14:55:15.973Z,34.85
2019-06-26T14:57:45.291Z,41.65
2019-06-26T15:00:15.949Z,36.65
2019-06-26T15:02:44.928Z,34.08
2019-06-26T15:05:14.726Z,36.68
2019-06-26T15:07:43.710Z,33.42
2019-06-26T15:10:12.806Z,26.15
2019-06-26T15:12:41.853Z,33.30
2019-06-26T15:15:12.983Z,27.35
2019-06-26T15:17:41.955Z,32.30
2019-06-26T15:20:11.309Z,26.93
2019-06-26T15:22:40.455Z,24.20
2019-06-26T15:25:09.895Z,22.87
2019-06-26T15:27:39.172Z,19.73
2019-06-26T15:30:09.782Z,23.47
2019-06-26T15:32:38.971Z,25.12
2019-06-26T15:35:08.242Z,25.75
2019-06-26T15:37:37.345Z,25.25
2019-06-26T15:40:07.230Z,27.22
2019-06-26T15:42:36.413Z,30.72
2019-06-26T15:45:08.202Z,25.97
2019-06-26T15:47:37.626Z,29.57
2019-06-26T15:50:10.505Z,29.27
2019-06-26T15:52:38.160Z,29.05
2019-06-26T15:55:07.680Z,33.33
2019-06-26T15:57:36.994Z,36.42
2019-06-26T16:00:10.940Z,37.10
2019-06-26T16:02:40.107Z,29.30
2019-06-26T16:05:09.266Z,31.33
2019-06-26T16:07:38.328Z,34.00
2019-06-26T16:10:08.704Z,39.53
2019-06-26T16:12:37.709Z,32.80
2019-06-26T16:15:07.782Z,32.13
2019-06-26T16:17:44.247Z,31.20
2019-06-26T16:20:13.734Z,31.97
2019-06-26T16:22:42.821Z,36.28
2019-06-26T16:25:12.233Z,29.80
2019-06-26T16:27:41.266Z,28.73
2019-06-26T16:30:10.797Z,33.00
2019-06-26T16:32:39.774Z,30.75
2019-06-26T16:35:12.213Z,30.55
2019-06-26T16:37:40.010Z,31.10
2019-06-26T16:40:09.255Z,29.50
2019-06-26T16:42:38.266Z,25.20
2019-06-26T16:45:07.844Z,24.12
2019-06-26T16:47:36.927Z,27.67
2019-06-26T16:50:07.636Z,22.20
2019-06-26T16:52:48.687Z,21.95
2019-06-26T16:55:07.865Z,25.23
2019-06-26T16:57:36.829Z,22.52
2019-06-26T17:00:09.928Z,26.75
2019-06-26T17:05:07.354Z,27.75
2019-06-26T17:07:36.410Z,24.02
2019-06-26T17:10:09.496Z,20.82
2019-06-26T17:12:38.473Z,24.75
2019-06-26T17:15:12.368Z,21.77
2019-06-26T17:17:41.340Z,23.25
2019-06-26T17:20:11.282Z,20.80
2019-06-26T17:22:41.836Z,22.15
2019-06-26T17:25:11.291Z,19.75
2019-06-26T17:27:40.696Z,16.20
2019-06-26T17:30:10.069Z,16.80
2019-06-26T17:32:39.128Z,14.90
2019-06-26T17:35:08.949Z,20.20
2019-06-26T17:37:37.956Z,17.02
2019-06-26T17:40:08.427Z,17.23
2019-06-26T17:42:39.020Z,12.85
2019-06-26T17:45:08.279Z,16.90
2019-06-26T17:47:38.288Z,14.60
2019-06-26T17:50:08.294Z,12.28
2019-06-26T17:52:38.570Z,15.65
2019-06-26T17:55:09.228Z,13.62
2019-06-26T17:57:38.293Z,15.83
2019-06-26T18:00:09.037Z,15.18
2019-06-26T18:02:38.679Z,16.62
2019-06-26T18:05:08.510Z,16.02
2019-06-26T18:07:37.472Z,16.65
2019-06-26T18:10:06.989Z,21.20
2019-06-26T18:12:36.327Z,17.67
2019-06-26T18:15:07.362Z,15.43
2019-06-26T18:17:36.555Z,19.70
2019-06-26T18:20:07.122Z,16.55
2019-06-26T18:22:36.537Z,12.82
2019-06-26T18:25:08.524Z,15.70
2019-06-26T18:27:37.594Z,16.97
2019-06-26T18:30:08.058Z,15.08
2019-06-26T18:32:37.024Z,13.43
2019-06-26T18:35:08.904Z,12.05
2019-06-26T18:37:37.991Z,14.87
2019-06-26T18:40:07.465Z,16.45
2019-06-26T18:42:37.078Z,17.40
2019-06-26T18:45:07.563Z,10.08
2019-06-26T18:47:36.601Z,15.43
2019-06-26T18:50:08.034Z,17.67
2019-06-26T18:52:37.032Z,11.93
2019-06-26T18:55:07.858Z,15.38
2019-06-26T18:57:36.820Z,13.75
2019-06-26T19:00:08.692Z,15.20
2019-06-26T19:02:37.806Z,12.58
2019-06-26T19:05:11.309Z,11.70
2019-06-26T19:07:40.270Z,9.93
2019-06-26T19:10:09.693Z,13.40
2019-06-26T19:12:38.813Z,13.93
2019-06-26T19:15:08.580Z,15.90
2019-06-26T19:17:37.711Z,12.88
2019-06-26T19:20:07.873Z,12.90
2019-06-26T19:22:37.230Z,14.90
2019-06-26T19:25:08.359Z,14.40
2019-06-26T19:27:37.484Z,11.35
2019-06-26T19:30:08.767Z,10.98
2019-06-26T19:32:37.841Z,16.80
2019-06-26T19:35:18.399Z,8.65
2019-06-26T19:37:39.368Z,13.67
2019-06-26T19:40:09.193Z,12.85
2019-06-26T19:42:38.627Z,16.30
2019-06-26T19:45:10.155Z,12.35
2019-06-26T19:47:39.188Z,8.93
2019-06-26T19:50:09.101Z,12.68
2019-06-26T19:52:38.189Z,9.65
2019-06-26T19:55:07.684Z,9.93
2019-06-26T19:57:37.104Z,8.40
2019-06-26T20:00:09.115Z,11.12
2019-06-26T20:02:38.167Z,13.05
2019-06-26T20:05:08.168Z,8.28
2019-06-26T20:07:39.022Z,8.53
2019-06-26T20:10:09.241Z,6.97
2019-06-26T20:12:38.209Z,9.80
2019-06-26T20:15:08.835Z,7.50
2019-06-26T20:17:37.857Z,5.55
2019-06-26T20:20:07.286Z,8.78
2019-06-26T20:22:36.395Z,11.22
2019-06-26T20:25:10.359Z,11.65
2019-06-26T20:27:39.407Z,9.58
2019-06-26T20:30:11.759Z,7.95
2019-06-26T20:32:40.803Z,6.73
2019-06-26T20:35:10.104Z,12.63
2019-06-26T20:37:39.156Z,13.53
2019-06-26T20:40:08.855Z,10.25
2019-06-26T20:42:37.935Z,8.58
2019-06-26T20:45:08.113Z,11.05
2019-06-26T20:47:37.442Z,11.45
2019-06-26T20:50:07.668Z,12.20
2019-06-26T20:52:37.110Z,12.40
2019-06-26T20:55:07.222Z,9.43
2019-06-26T20:57:36.319Z,12.78
2019-06-26T21:00:09.553Z,16.87
2019-06-26T21:02:38.515Z,13.75
2019-06-26T21:05:08.020Z,8.75
2019-06-26T21:07:37.074Z,8.05
2019-06-26T21:10:06.484Z,11.63
2019-06-26T21:12:35.528Z,11.03
2019-06-26T21:15:06.922Z,7.92
2019-06-26T21:17:36.228Z,11.95
2019-06-26T21:20:06.538Z,12.20
2019-06-26T21:22:35.863Z,11.68
2019-06-26T21:25:17.596Z,11.18
2019-06-26T21:27:37.776Z,11.28
2019-06-26T21:30:07.888Z,10.68
2019-06-26T21:32:36.852Z,13.43
2019-06-26T21:35:06.841Z,11.73
2019-06-26T21:37:35.910Z,15.85
2019-06-26T21:40:05.302Z,10.55
2019-06-26T21:42:34.302Z,12.55
2019-06-26T21:45:04.064Z,11.78
2019-06-26T21:47:33.113Z,12.35
2019-06-26T21:50:02.073Z,11.05
2019-06-26T21:52:31.561Z,12.20
2019-06-26T21:55:00.925Z,12.80
2019-06-26T21:57:30.155Z,10.05
2019-06-26T21:59:59.138Z,11.97
2019-06-26T22:02:28.647Z,12.35
2019-06-26T22:04:57.753Z,16.20
2019-06-26T22:07:26.855Z,13.62
2019-06-26T22:09:55.872Z,12.63
2019-06-26T22:12:25.221Z,14.05
2019-06-26T22:14:54.328Z,13.48
2019-06-26T22:17:23.377Z,13.70
2019-06-26T22:19:52.696Z,11.08
2019-06-26T22:22:22.123Z,13.48
2019-06-26T22:24:54.255Z,14.05
2019-06-26T22:27:23.306Z,10.50
2019-06-26T22:29:52.487Z,15.08
2019-06-26T22:32:21.787Z,12.90
2019-06-26T22:34:50.874Z,12.35
2019-06-26T22:37:19.843Z,12.45
2019-06-26T22:39:49.181Z,11.30
2019-06-26T22:42:18.502Z,10.35
2019-06-26T22:44:47.477Z,11.05
2019-06-26T22:47:19.433Z,12.53
2019-06-26T22:49:48.423Z,11.28
2019-06-26T22:52:17.406Z,11.93
2019-06-26T22:54:46.434Z,12.28
2019-06-26T22:57:15.397Z,12.93
2019-06-26T22:59:44.382Z,15.45
2019-06-26T23:02:13.350Z,13.25
2019-06-26T23:04:42.402Z,14.18
2019-06-26T23:07:11.368Z,15.10
2019-06-26T23:09:40.809Z,11.40
2019-06-26T23:12:09.771Z,14.35
2019-06-26T23:14:38.731Z,8.75
2019-06-26T23:17:08.082Z,16.82
2019-06-26T23:19:37.113Z,14.83
2019-06-26T23:22:06.232Z,14.68
2019-06-26T23:24:35.262Z,12.90
2019-06-26T23:27:04.349Z,13.10
2019-06-26T23:29:33.368Z,15.30
2019-06-26T23:32:03.412Z,11.88
2019-06-26T23:34:32.852Z,12.88
2019-06-26T23:37:01.872Z,12.75
2019-06-26T23:39:30.838Z,14.70
2019-06-26T23:41:59.815Z,15.38
2019-06-26T23:44:28.791Z,8.48
2019-06-26T23:46:57.749Z,11.35
2019-06-26T23:49:26.704Z,18.32
2019-06-26T23:51:55.718Z,14.07
2019-06-26T23:54:24.720Z,10.98
2019-06-26T23:56:53.769Z,10.30
2019-06-26T23:59:22.796Z,16.17
